Accueil
METAR-TAF:

METAR-TAF

Aéroports :

Ponape, Micronésie

Aéroport international de Pohnpei

latitude: 06-59N, longitude: 158-12E, altitude: 2 m

Observation

Le bulletin a été fait il y a 52 minutes, à 23:50 UTC
Vent 15 kt de est/nord-est
Température 30°C
Humidité 75%
Pression 1010 hPa
Visibilité: 24.1 km
Nuages fragmentés à une hauteur de 1700 ft, Cumulus congestus.
Nuages fragmentés à une hauteur de 13000 ft
Ciel couvert à une hauteur de 30000 ft

METAR: PTPN 212350Z 06015KT 15SM BKN017TCU BKN130 OVC300 30/25 A2982 RMK TCU SE-W

Heure: 11:42 (00:42 UTC)

Prévision

Le bulletin a été fait il y a 1 heure et 17 minutes, à 23:25 UTC
Prévision valable du 22 à 00 UTC au 22 à 24 UTC
Vent 13 kt de est/nord-est
Visibilité: 10 km
Nuages épars à une hauteur de 1700 ft
Nuages épars à une hauteur de 13000 ft

TAF: PTPN 212325Z 2200/2224 07013KT P6SM SCT017 SCT130

Observations et prévisions météorologiques de plus de 4000 aéroports (messages METAR et TAF).

Les stations disponibles sont représentées par des disques jaunes et rouges sur la carte.

Passer la souris dessus pour voir le nom de la station.

Cliquer dessus pour voir les observations et prévisions météorologiques.

Pour changer de carte: cliquez sur les boutons verts avec une croix noire pour zoomer, sur le bouton vert avec un tiret pour effectuer un zoom arrière, ou sur les flèches vertes pour les cartes adjacentes.


METAR-TAF: